createdAt,value
2022-11-26T00:02:29.815Z,19.40
2022-11-26T00:05:02.512Z,19.50
2022-11-26T00:07:35.793Z,19.40
2022-11-26T00:10:17.804Z,17.90
2022-11-26T00:12:50.390Z,20.40
2022-11-26T00:15:25.466Z,16.80
2022-11-26T00:17:58.216Z,20.20
2022-11-26T00:20:32.939Z,17.90
2022-11-26T00:23:05.848Z,19.20
2022-11-26T00:25:44.171Z,18.10
2022-11-26T00:28:32.068Z,17.80
2022-11-26T00:31:06.371Z,19.90
2022-11-26T00:33:38.868Z,18.90
2022-11-26T00:36:19.034Z,21.90
2022-11-26T00:38:54.890Z,20.70
2022-11-26T00:41:30.676Z,17.50
2022-11-26T00:44:03.393Z,21.90
2022-11-26T00:46:35.884Z,19.90
2022-11-26T00:49:08.319Z,16.80
2022-11-26T00:51:40.904Z,19.60
2022-11-26T00:54:16.327Z,18.40
2022-11-26T00:56:48.944Z,19.90
2022-11-26T00:59:24.347Z,19.00
2022-11-26T01:01:56.809Z,18.60
2022-11-26T01:04:29.274Z,22.00
2022-11-26T01:07:01.770Z,22.30
2022-11-26T01:09:34.309Z,19.60
2022-11-26T01:12:07.235Z,23.70
2022-11-26T01:17:14.135Z,20.70
2022-11-26T01:19:46.556Z,21.50
2022-11-26T01:22:23.177Z,19.00
2022-11-26T01:24:55.721Z,21.30
2022-11-26T01:27:28.301Z,19.50
2022-11-26T01:30:00.727Z,20.30
2022-11-26T01:32:33.214Z,20.10
2022-11-26T01:35:06.240Z,21.10
2022-11-26T01:37:38.732Z,19.80
2022-11-26T01:40:30.642Z,19.10
2022-11-26T01:43:07.766Z,20.10
2022-11-26T01:45:40.403Z,18.40
2022-11-26T01:51:06.340Z,19.50
2022-11-26T01:53:46.281Z,20.30
2022-11-26T01:56:28.171Z,19.60
2022-11-26T01:59:06.747Z,21.00
2022-11-26T02:01:39.758Z,19.20
2022-11-26T02:04:16.196Z,18.60
2022-11-26T02:06:50.887Z,18.20
2022-11-26T02:09:24.057Z,20.60
2022-11-26T02:11:56.888Z,17.60
2022-11-26T02:17:17.830Z,18.40
2022-11-26T02:20:27.143Z,21.10
2022-11-26T02:23:32.709Z,20.90
2022-11-26T02:26:49.919Z,19.60
2022-11-26T02:29:27.224Z,21.70
2022-11-26T02:32:05.123Z,18.60
2022-11-26T02:34:42.930Z,19.40
2022-11-26T02:37:18.124Z,20.30
2022-11-26T02:39:50.674Z,20.10
2022-11-26T02:42:26.642Z,17.20
2022-11-26T02:45:00.676Z,18.10
2022-11-26T02:47:35.064Z,20.20
2022-11-26T02:50:12.209Z,19.60
2022-11-26T02:52:45.192Z,20.20
2022-11-26T02:55:19.176Z,17.80
2022-11-26T02:57:52.781Z,20.40
2022-11-26T03:00:26.005Z,21.40
2022-11-26T03:03:02.112Z,18.10
2022-11-26T03:05:37.420Z,18.70
2022-11-26T03:08:10.058Z,19.80
2022-11-26T03:10:42.402Z,18.60
2022-11-26T03:13:14.704Z,18.50
2022-11-26T03:15:47.200Z,18.30
2022-11-26T03:18:19.663Z,18.00
2022-11-26T03:20:52.623Z,21.50
2022-11-26T03:23:25.081Z,21.80
2022-11-26T03:25:57.508Z,17.10
2022-11-26T03:28:30.342Z,18.60
2022-11-26T03:33:33.300Z,20.50
2022-11-26T03:36:05.858Z,19.50
2022-11-26T03:38:38.243Z,26.00
2022-11-26T03:41:10.593Z,23.60
2022-11-26T03:43:42.939Z,25.20
2022-11-26T03:46:15.329Z,24.30
2022-11-26T03:48:47.896Z,24.10
2022-11-26T03:51:20.389Z,25.40
2022-11-26T03:53:52.756Z,29.40
2022-11-26T03:56:25.169Z,32.00
2022-11-26T03:58:57.633Z,26.30
2022-11-26T04:01:30.041Z,28.40
2022-11-26T04:04:02.452Z,25.90
2022-11-26T04:06:34.996Z,24.60
2022-11-26T04:09:07.442Z,26.40
2022-11-26T04:11:39.722Z,26.90
2022-11-26T04:14:12.130Z,24.40
2022-11-26T04:16:44.716Z,24.10
2022-11-26T04:19:17.082Z,23.40
2022-11-26T04:21:49.443Z,25.90
2022-11-26T04:24:21.918Z,24.80
2022-11-26T04:26:54.421Z,25.10
2022-11-26T04:29:26.730Z,21.70
2022-11-26T04:31:59.179Z,24.90
2022-11-26T04:34:31.690Z,24.60
2022-11-26T04:37:03.999Z,27.40
2022-11-26T04:39:36.940Z,23.40
2022-11-26T04:42:09.360Z,27.00
2022-11-26T04:44:41.734Z,27.80
2022-11-26T04:47:14.142Z,29.20
2022-11-26T04:49:46.533Z,25.20
2022-11-26T04:52:18.943Z,30.00
2022-11-26T04:54:51.484Z,29.20
2022-11-26T04:57:23.856Z,26.40
2022-11-26T04:59:59.038Z,30.20
2022-11-26T05:02:31.541Z,24.90
2022-11-26T05:05:03.996Z,32.10
2022-11-26T05:07:36.584Z,29.20
2022-11-26T05:10:10.800Z,32.20
2022-11-26T05:12:43.109Z,32.60
2022-11-26T05:15:15.555Z,25.90
2022-11-26T05:17:47.894Z,28.30
2022-11-26T05:20:20.325Z,27.20
2022-11-26T05:22:52.812Z,26.30
2022-11-26T05:25:25.272Z,29.20
2022-11-26T05:27:57.715Z,24.50
2022-11-26T05:30:30.024Z,28.60
2022-11-26T05:33:02.385Z,28.10
2022-11-26T05:35:34.749Z,27.90
2022-11-26T05:38:07.052Z,26.10
2022-11-26T05:40:39.453Z,26.50
2022-11-26T05:43:11.892Z,30.40
2022-11-26T05:45:44.345Z,32.00
2022-11-26T05:48:16.774Z,29.60
2022-11-26T05:50:54.361Z,30.40
2022-11-26T05:53:27.061Z,28.20
2022-11-26T05:55:59.554Z,30.60
2022-11-26T05:58:32.101Z,28.80
2022-11-26T06:01:10.210Z,32.00
2022-11-26T06:03:42.735Z,29.00
2022-11-26T06:06:15.235Z,27.80
2022-11-26T06:08:47.598Z,31.00
2022-11-26T06:11:20.174Z,30.20
2022-11-26T06:13:52.522Z,28.90
2022-11-26T06:16:25.052Z,25.80
2022-11-26T06:18:57.741Z,31.00
2022-11-26T06:24:01.189Z,34.60
2022-11-26T06:26:33.517Z,33.00
2022-11-26T06:29:06.082Z,33.00
2022-11-26T06:31:38.576Z,36.50
2022-11-26T06:34:11.043Z,31.20
2022-11-26T06:36:43.945Z,38.60
2022-11-26T06:41:46.980Z,37.30
2022-11-26T06:44:19.314Z,40.80
2022-11-26T06:46:51.803Z,37.40
2022-11-26T06:49:24.122Z,36.10
2022-11-26T06:51:57.379Z,35.70
2022-11-26T06:54:29.740Z,35.40
2022-11-26T06:57:02.142Z,40.20
2022-11-26T06:59:34.705Z,39.60
2022-11-26T07:02:07.176Z,42.40
2022-11-26T07:04:39.773Z,38.10
2022-11-26T07:09:43.488Z,42.90
2022-11-26T07:12:15.864Z,43.50
2022-11-26T07:14:48.645Z,41.00
2022-11-26T07:19:52.027Z,43.20
2022-11-26T07:24:55.169Z,41.50
2022-11-26T07:27:27.586Z,38.50
2022-11-26T07:29:59.903Z,42.80
2022-11-26T07:32:33.769Z,36.30
2022-11-26T07:35:06.744Z,37.20
2022-11-26T07:37:39.342Z,37.00
2022-11-26T07:40:12.964Z,35.70
2022-11-26T07:42:49.139Z,39.00
2022-11-26T07:45:24.366Z,46.30
2022-11-26T07:47:56.714Z,43.00
2022-11-26T07:50:29.236Z,50.10
2022-11-26T07:53:02.015Z,39.80
2022-11-26T07:58:05.783Z,38.20
2022-11-26T08:00:38.265Z,42.60
2022-11-26T08:03:11.380Z,41.80
2022-11-26T08:05:45.532Z,47.90
2022-11-26T08:08:18.223Z,46.00
2022-11-26T08:10:51.433Z,49.30
2022-11-26T08:13:24.561Z,49.00
2022-11-26T08:15:57.405Z,55.30
2022-11-26T08:18:29.817Z,44.90
2022-11-26T08:21:02.251Z,41.90
2022-11-26T08:23:36.134Z,38.20
2022-11-26T08:26:23.748Z,39.90
2022-11-26T08:28:57.887Z,41.90
2022-11-26T08:31:30.707Z,40.80
2022-11-26T08:34:03.638Z,45.90
2022-11-26T08:36:36.194Z,46.80
2022-11-26T08:39:09.957Z,47.70
2022-11-26T08:44:14.226Z,48.30
2022-11-26T08:46:46.624Z,44.10
2022-11-26T08:49:19.319Z,48.30
2022-11-26T08:54:22.717Z,50.40
2022-11-26T08:56:55.311Z,55.00
2022-11-26T08:59:52.072Z,48.00
2022-11-26T09:02:27.984Z,50.10
2022-11-26T09:05:00.973Z,53.80
2022-11-26T09:07:34.314Z,55.10
2022-11-26T09:14:28.194Z,52.00
2022-11-26T09:17:02.417Z,52.20
2022-11-26T09:19:39.048Z,55.10
2022-11-26T09:22:14.065Z,51.10
2022-11-26T09:25:33.635Z,55.20
2022-11-26T09:28:22.538Z,55.70
2022-11-26T09:31:02.878Z,57.10
2022-11-26T09:33:38.036Z,51.90
2022-11-26T09:36:15.477Z,50.70
2022-11-26T09:38:52.105Z,52.60
2022-11-26T09:41:44.906Z,57.80
2022-11-26T09:44:29.487Z,50.00
2022-11-26T09:47:14.615Z,54.60
2022-11-26T09:50:05.007Z,57.10
2022-11-26T09:52:43.238Z,51.90
2022-11-26T09:55:22.255Z,54.50
2022-11-26T09:58:04.123Z,53.60
2022-11-26T10:00:42.250Z,50.80
2022-11-26T10:03:18.760Z,48.50
2022-11-26T10:06:02.205Z,41.10
2022-11-26T10:09:01.523Z,44.50
2022-11-26T10:11:39.127Z,39.60
2022-11-26T10:20:45.946Z,50.80
2022-11-26T10:23:26.733Z,51.40
2022-11-26T10:26:06.187Z,37.80
2022-11-26T10:28:45.037Z,44.60
2022-11-26T10:31:22.423Z,36.60
2022-11-26T10:34:02.159Z,38.80
2022-11-26T10:36:40.131Z,37.10
2022-11-26T10:39:17.367Z,41.00
2022-11-26T10:41:50.410Z,43.60
2022-11-26T10:44:35.022Z,45.20
2022-11-26T10:47:22.752Z,47.20
2022-11-26T10:49:56.169Z,43.90
2022-11-26T10:52:31.070Z,43.80
2022-11-26T10:55:25.194Z,51.50
2022-11-26T10:58:02.825Z,45.60
2022-11-26T11:01:01.276Z,45.30
2022-11-26T11:06:42.272Z,50.90
2022-11-26T11:09:31.161Z,51.80
2022-11-26T11:16:47.151Z,50.60
2022-11-26T11:19:28.221Z,54.50
2022-11-26T11:22:02.786Z,56.50
2022-11-26T11:24:38.777Z,54.20
2022-11-26T11:27:26.238Z,50.40
2022-11-26T11:30:03.077Z,44.30
2022-11-26T11:32:40.942Z,45.40
2022-11-26T11:35:25.310Z,40.90
2022-11-26T11:37:58.561Z,51.40
2022-11-26T11:40:44.989Z,45.80
2022-11-26T11:43:23.013Z,49.10
2022-11-26T11:52:30.615Z,50.60
2022-11-26T11:55:13.086Z,45.00
2022-11-26T11:58:08.450Z,44.50
2022-11-26T12:00:47.900Z,39.10
2022-11-26T12:03:44.684Z,41.90
2022-11-26T12:06:25.185Z,44.10
2022-11-26T12:16:40.471Z,45.00
2022-11-26T12:19:19.453Z,43.30
2022-11-26T12:21:56.059Z,51.70
2022-11-26T12:24:41.790Z,53.10
2022-11-26T12:27:24.340Z,52.80
2022-11-26T12:30:02.794Z,48.20
2022-11-26T12:32:40.602Z,50.90
2022-11-26T12:35:19.437Z,54.10
2022-11-26T12:37:53.547Z,55.30
2022-11-26T12:40:33.880Z,54.60
2022-11-26T12:43:11.764Z,49.70
2022-11-26T12:45:50.866Z,54.70
2022-11-26T12:48:37.966Z,104.10
2022-11-26T12:51:19.873Z,58.80
2022-11-26T12:53:55.655Z,54.40
2022-11-26T12:56:33.668Z,54.40
2022-11-26T12:59:09.382Z,53.10
2022-11-26T13:01:41.651Z,57.90
2022-11-26T13:04:36.809Z,47.10
2022-11-26T13:07:18.578Z,49.60
2022-11-26T13:10:05.093Z,54.20
2022-11-26T13:12:45.522Z,56.90
2022-11-26T13:15:23.199Z,57.10
2022-11-26T13:17:55.955Z,44.10
2022-11-26T13:20:44.769Z,46.20
2022-11-26T13:23:32.342Z,44.90
2022-11-26T13:26:24.580Z,46.70
2022-11-26T13:29:31.442Z,45.60
2022-11-26T13:32:30.113Z,42.30
2022-11-26T13:35:19.755Z,43.30
2022-11-26T13:38:06.762Z,56.00
2022-11-26T13:41:00.380Z,50.50
2022-11-26T13:44:12.038Z,52.00
2022-11-26T13:46:46.926Z,46.90
2022-11-26T13:49:21.814Z,46.90
2022-11-26T13:51:57.339Z,48.90
2022-11-26T13:54:33.008Z,52.70
2022-11-26T13:57:08.459Z,51.00
2022-11-26T13:59:48.321Z,49.00
2022-11-26T14:02:44.571Z,54.00
2022-11-26T14:05:18.785Z,48.90
2022-11-26T14:07:51.275Z,49.70
2022-11-26T14:13:18.451Z,47.00
2022-11-26T14:16:00.662Z,47.60
2022-11-26T14:19:06.270Z,51.30
2022-11-26T14:22:03.869Z,43.30
2022-11-26T14:24:57.815Z,46.00
2022-11-26T14:27:32.728Z,50.60
2022-11-26T14:30:21.766Z,48.70
2022-11-26T14:33:09.924Z,55.30
2022-11-26T14:35:43.409Z,48.60
2022-11-26T14:38:28.416Z,47.50
2022-11-26T14:41:02.223Z,46.30
2022-11-26T14:43:34.432Z,52.70
2022-11-26T14:46:10.806Z,53.30
2022-11-26T14:48:47.624Z,54.70
2022-11-26T14:51:25.186Z,56.30
2022-11-26T14:53:58.660Z,57.30
2022-11-26T14:56:32.356Z,51.70
2022-11-26T14:59:08.502Z,49.60
2022-11-26T15:01:46.874Z,51.80
2022-11-26T15:04:27.217Z,50.50
2022-11-26T15:07:00.666Z,53.60
2022-11-26T15:09:33.192Z,54.00
2022-11-26T15:12:09.595Z,51.10
2022-11-26T15:14:46.779Z,55.70
2022-11-26T15:17:21.244Z,53.90
2022-11-26T15:19:54.258Z,52.50
2022-11-26T15:22:31.852Z,53.40
2022-11-26T15:25:04.665Z,55.60
2022-11-26T15:27:40.989Z,48.60
2022-11-26T15:30:22.650Z,58.40
2022-11-26T15:33:01.605Z,56.50
2022-11-26T15:35:36.637Z,60.00
2022-11-26T15:38:16.856Z,62.30
2022-11-26T15:40:50.797Z,56.80
2022-11-26T15:43:27.896Z,56.40
2022-11-26T15:46:06.006Z,57.00
2022-11-26T15:48:52.027Z,56.20
2022-11-26T15:51:34.967Z,61.90
2022-11-26T15:54:24.152Z,64.30
2022-11-26T15:57:00.124Z,59.90
2022-11-26T15:59:43.237Z,61.00
2022-11-26T16:02:27.062Z,61.10
2022-11-26T16:05:00.517Z,66.30
2022-11-26T16:07:34.353Z,60.10
2022-11-26T16:10:26.692Z,62.50
2022-11-26T16:13:35.443Z,61.60
2022-11-26T16:16:16.213Z,64.20
2022-11-26T16:18:57.296Z,70.40
2022-11-26T16:21:31.360Z,62.40
2022-11-26T16:24:07.460Z,63.30
2022-11-26T16:29:37.137Z,61.60
2022-11-26T16:32:09.520Z,57.50
2022-11-26T16:34:46.965Z,62.70
2022-11-26T16:37:24.473Z,63.50
2022-11-26T16:40:06.175Z,70.60
2022-11-26T16:42:41.407Z,57.50
2022-11-26T16:45:23.809Z,52.70
2022-11-26T16:47:57.385Z,59.40
2022-11-26T16:50:30.921Z,58.40
2022-11-26T16:53:07.383Z,57.10
2022-11-26T16:55:40.504Z,52.50
2022-11-26T16:58:21.340Z,53.50
2022-11-26T17:00:53.882Z,57.40
2022-11-26T17:06:31.040Z,60.90
2022-11-26T17:09:04.282Z,60.90
2022-11-26T17:11:41.156Z,58.00
2022-11-26T17:14:21.745Z,60.10
2022-11-26T17:17:48.596Z,62.70
2022-11-26T17:20:46.597Z,58.10
2022-11-26T17:23:43.868Z,60.80
2022-11-26T17:26:25.649Z,52.20
2022-11-26T17:30:33.960Z,55.30
2022-11-26T17:36:55.637Z,56.90
2022-11-26T17:46:20.262Z,50.20
2022-11-26T17:49:10.401Z,49.90
2022-11-26T17:52:19.584Z,44.10
2022-11-26T17:55:32.282Z,44.40
2022-11-26T17:58:07.448Z,43.60
2022-11-26T18:00:53.852Z,41.50
2022-11-26T18:03:37.595Z,48.40
2022-11-26T18:06:16.282Z,46.30
2022-11-26T18:08:50.324Z,44.30
2022-11-26T18:11:54.481Z,44.30
2022-11-26T18:14:42.081Z,43.10
2022-11-26T18:28:24.293Z,47.20
2022-11-26T18:30:59.943Z,46.50
2022-11-26T18:34:06.567Z,49.80
2022-11-26T18:36:43.635Z,51.50
2022-11-26T18:39:43.179Z,49.20
2022-11-26T18:42:41.279Z,52.80
2022-11-26T18:45:17.119Z,50.80
2022-11-26T18:47:52.361Z,51.90
2022-11-26T18:59:35.874Z,60.00
2022-11-26T19:02:12.819Z,52.20
2022-11-26T19:04:45.893Z,55.00
2022-11-26T19:07:18.629Z,51.70
2022-11-26T19:09:56.388Z,55.80
2022-11-26T19:12:48.770Z,50.00
2022-11-26T19:16:11.595Z,55.70
2022-11-26T19:19:16.483Z,59.60
2022-11-26T19:22:01.442Z,60.40
2022-11-26T19:24:34.504Z,59.40
2022-11-26T19:27:07.164Z,54.70
2022-11-26T19:29:43.982Z,59.60
2022-11-26T19:32:28.206Z,53.80
2022-11-26T19:35:12.816Z,56.10
2022-11-26T19:38:05.986Z,59.30
2022-11-26T19:40:51.240Z,54.80
2022-11-26T19:43:24.435Z,55.80
2022-11-26T19:46:08.827Z,57.80
2022-11-26T19:48:44.051Z,55.70
2022-11-26T19:51:55.642Z,55.10
2022-11-26T19:54:36.786Z,54.90
2022-11-26T19:57:10.407Z,51.80
2022-11-26T19:59:47.662Z,51.60
2022-11-26T20:02:21.966Z,56.90
2022-11-26T20:05:02.453Z,53.50
2022-11-26T20:07:43.615Z,54.10
2022-11-26T20:10:21.070Z,55.40
2022-11-26T20:12:58.840Z,60.60
2022-11-26T20:15:33.469Z,54.50
2022-11-26T20:18:09.915Z,53.90
2022-11-26T20:20:43.763Z,55.60
2022-11-26T20:23:22.655Z,54.70
2022-11-26T20:26:01.412Z,50.00
2022-11-26T20:28:40.041Z,52.60
2022-11-26T20:31:23.290Z,53.30
2022-11-26T20:34:11.887Z,54.70
2022-11-26T20:36:55.677Z,53.40
2022-11-26T20:39:51.260Z,51.10
2022-11-26T20:42:56.460Z,50.60
2022-11-26T20:45:35.494Z,49.20
2022-11-26T20:48:08.268Z,49.10
2022-11-26T20:50:40.944Z,49.10
2022-11-26T20:53:14.097Z,51.40
2022-11-26T20:55:56.687Z,59.60
2022-11-26T20:58:30.760Z,51.70
2022-11-26T21:01:03.878Z,53.70
2022-11-26T21:03:46.273Z,49.20
2022-11-26T21:06:29.044Z,51.10
2022-11-26T21:09:09.464Z,52.20
2022-11-26T21:11:43.143Z,49.30
2022-11-26T21:14:16.403Z,53.40
2022-11-26T21:16:49.677Z,50.10
2022-11-26T21:19:22.424Z,51.60
2022-11-26T21:21:54.838Z,48.10
2022-11-26T21:24:27.733Z,55.10
2022-11-26T21:27:00.413Z,52.30
2022-11-26T21:32:09.992Z,58.60
2022-11-26T21:34:49.130Z,51.50
2022-11-26T21:37:29.462Z,51.40
2022-11-26T21:40:02.055Z,50.80
2022-11-26T21:42:38.006Z,53.10
2022-11-26T21:45:12.137Z,50.60
2022-11-26T21:47:45.420Z,45.70
2022-11-26T21:50:17.668Z,49.30
2022-11-26T21:52:50.037Z,47.20
2022-11-26T21:55:22.856Z,48.10
2022-11-26T21:57:55.320Z,42.50
2022-11-26T22:00:28.476Z,47.20
2022-11-26T22:03:11.554Z,41.60
2022-11-26T22:06:05.877Z,48.50
2022-11-26T22:09:03.749Z,47.30
2022-11-26T22:12:31.213Z,46.50
2022-11-26T22:15:24.737Z,43.30
2022-11-26T22:17:58.713Z,42.90
2022-11-26T22:21:28.118Z,45.40
2022-11-26T22:24:24.031Z,44.20
2022-11-26T22:27:05.925Z,42.70
2022-11-26T22:29:38.937Z,45.40
2022-11-26T22:32:12.198Z,43.00
2022-11-26T22:34:44.799Z,42.90
2022-11-26T22:37:17.180Z,43.40
2022-11-26T22:39:53.832Z,45.80
2022-11-26T22:42:27.940Z,44.90
2022-11-26T22:45:03.452Z,43.40
2022-11-26T22:47:36.457Z,40.00
2022-11-26T22:50:11.330Z,42.00
2022-11-26T22:52:44.781Z,43.10
2022-11-26T22:55:18.082Z,42.50
2022-11-26T22:57:55.214Z,42.80
2022-11-26T23:00:49.760Z,43.10
2022-11-26T23:03:41.264Z,43.60
2022-11-26T23:06:30.839Z,42.50
2022-11-26T23:09:04.674Z,40.30
2022-11-26T23:11:38.974Z,43.40
2022-11-26T23:14:12.438Z,40.50
2022-11-26T23:16:45.704Z,42.90
2022-11-26T23:19:19.676Z,38.00
2022-11-26T23:21:52.345Z,36.10
2022-11-26T23:26:55.609Z,34.10
2022-11-26T23:29:28.072Z,37.70
2022-11-26T23:32:00.584Z,36.70
2022-11-26T23:34:33.233Z,35.20
2022-11-26T23:37:05.467Z,32.50
2022-11-26T23:39:38.194Z,34.10
2022-11-26T23:42:10.684Z,35.70
2022-11-26T23:44:42.981Z,32.10
2022-11-26T23:47:15.356Z,32.10
2022-11-26T23:49:47.785Z,31.50
2022-11-26T23:52:20.265Z,30.60
2022-11-26T23:54:52.552Z,30.20
2022-11-26T23:57:24.898Z,28.80
2022-11-26T23:59:57.243Z,29.90
